sensor_id;sensor_type;location;lat;lon;timestamp;P1;durP1;ratioP1;P2;durP2;ratioP2
5704;SDS011;2877;48.238;11.160;2023-07-30T00:00:36;1.60;;;1.50;;
5704;SDS011;2877;48.238;11.160;2023-07-30T00:03:02;1.70;;;1.60;;
5704;SDS011;2877;48.238;11.160;2023-07-30T00:05:27;2.00;;;1.90;;
5704;SDS011;2877;48.238;11.160;2023-07-30T00:07:53;1.90;;;1.80;;
5704;SDS011;2877;48.238;11.160;2023-07-30T00:10:19;1.80;;;1.70;;
5704;SDS011;2877;48.238;11.160;2023-07-30T00:12:45;1.80;;;1.70;;
5704;SDS011;2877;48.238;11.160;2023-07-30T00:15:11;1.70;;;1.60;;
5704;SDS011;2877;48.238;11.160;2023-07-30T00:17:38;1.70;;;1.60;;
5704;SDS011;2877;48.238;11.160;2023-07-30T00:20:04;1.87;;;1.73;;
5704;SDS011;2877;48.238;11.160;2023-07-30T00:22:31;3.60;;;1.60;;
5704;SDS011;2877;48.238;11.160;2023-07-30T00:24:56;1.90;;;1.80;;
5704;SDS011;2877;48.238;11.160;2023-07-30T00:27:22;2.87;;;1.83;;
5704;SDS011;2877;48.238;11.160;2023-07-30T00:29:47;1.67;;;1.57;;
5704;SDS011;2877;48.238;11.160;2023-07-30T00:32:13;1.80;;;1.70;;
5704;SDS011;2877;48.238;11.160;2023-07-30T00:34:40;1.77;;;1.67;;
5704;SDS011;2877;48.238;11.160;2023-07-30T00:37:06;1.90;;;1.80;;
5704;SDS011;2877;48.238;11.160;2023-07-30T00:39:32;3.30;;;1.90;;
5704;SDS011;2877;48.238;11.160;2023-07-30T00:41:57;1.60;;;1.50;;
5704;SDS011;2877;48.238;11.160;2023-07-30T00:44:23;5.33;;;1.70;;
5704;SDS011;2877;48.238;11.160;2023-07-30T00:46:48;1.67;;;1.57;;
5704;SDS011;2877;48.238;11.160;2023-07-30T00:49:14;26.43;;;2.77;;
5704;SDS011;2877;48.238;11.160;2023-07-30T00:51:40;1.50;;;1.40;;
5704;SDS011;2877;48.238;11.160;2023-07-30T00:54:07;1.97;;;1.30;;
5704;SDS011;2877;48.238;11.160;2023-07-30T00:56:32;1.60;;;1.50;;
5704;SDS011;2877;48.238;11.160;2023-07-30T00:58:59;3.83;;;1.63;;
5704;SDS011;2877;48.238;11.160;2023-07-30T01:01:25;2.47;;;1.53;;
5704;SDS011;2877;48.238;11.160;2023-07-30T01:03:51;1.77;;;1.40;;
5704;SDS011;2877;48.238;11.160;2023-07-30T01:06:16;2.53;;;1.90;;
5704;SDS011;2877;48.238;11.160;2023-07-30T01:08:43;1.60;;;1.50;;
5704;SDS011;2877;48.238;11.160;2023-07-30T01:11:08;1.77;;;1.67;;
5704;SDS011;2877;48.238;11.160;2023-07-30T01:13:35;5.70;;;1.80;;
5704;SDS011;2877;48.238;11.160;2023-07-30T01:16:01;1.73;;;1.53;;
5704;SDS011;2877;48.238;11.160;2023-07-30T01:18:28;1.83;;;1.60;;
5704;SDS011;2877;48.238;11.160;2023-07-30T01:20:57;3.10;;;1.50;;
5704;SDS011;2877;48.238;11.160;2023-07-30T01:23:23;1.93;;;1.40;;
5704;SDS011;2877;48.238;11.160;2023-07-30T01:25:51;1.90;;;1.77;;
5704;SDS011;2877;48.238;11.160;2023-07-30T01:28:34;1.80;;;1.70;;
5704;SDS011;2877;48.238;11.160;2023-07-30T01:31:03;1.80;;;1.70;;
5704;SDS011;2877;48.238;11.160;2023-07-30T01:33:31;7.20;;;1.80;;
5704;SDS011;2877;48.238;11.160;2023-07-30T01:35:57;1.70;;;1.60;;
5704;SDS011;2877;48.238;11.160;2023-07-30T01:38:24;1.50;;;1.40;;
5704;SDS011;2877;48.238;11.160;2023-07-30T01:40:51;1.83;;;1.73;;
5704;SDS011;2877;48.238;11.160;2023-07-30T01:43:17;2.13;;;1.93;;
5704;SDS011;2877;48.238;11.160;2023-07-30T01:45:43;1.77;;;1.57;;
5704;SDS011;2877;48.238;11.160;2023-07-30T01:48:08;2.60;;;1.60;;
5704;SDS011;2877;48.238;11.160;2023-07-30T01:50:34;2.80;;;1.80;;
5704;SDS011;2877;48.238;11.160;2023-07-30T01:52:59;1.70;;;1.60;;
5704;SDS011;2877;48.238;11.160;2023-07-30T01:55:25;2.37;;;1.90;;
5704;SDS011;2877;48.238;11.160;2023-07-30T01:57:50;2.30;;;2.10;;
5704;SDS011;2877;48.238;11.160;2023-07-30T02:00:16;2.20;;;2.10;;
5704;SDS011;2877;48.238;11.160;2023-07-30T02:02:42;4.23;;;2.07;;
5704;SDS011;2877;48.238;11.160;2023-07-30T02:05:07;1.70;;;1.60;;
5704;SDS011;2877;48.238;11.160;2023-07-30T02:07:33;2.10;;;2.00;;
5704;SDS011;2877;48.238;11.160;2023-07-30T02:09:58;2.33;;;2.13;;
5704;SDS011;2877;48.238;11.160;2023-07-30T02:12:24;2.47;;;1.93;;
5704;SDS011;2877;48.238;11.160;2023-07-30T02:14:49;1.80;;;1.70;;
5704;SDS011;2877;48.238;11.160;2023-07-30T02:17:15;2.90;;;2.00;;
5704;SDS011;2877;48.238;11.160;2023-07-30T02:19:41;2.10;;;1.90;;
5704;SDS011;2877;48.238;11.160;2023-07-30T02:22:07;2.70;;;2.13;;
5704;SDS011;2877;48.238;11.160;2023-07-30T02:24:33;2.33;;;2.20;;
5704;SDS011;2877;48.238;11.160;2023-07-30T02:26:58;3.60;;;2.13;;
5704;SDS011;2877;48.238;11.160;2023-07-30T02:29:24;2.23;;;2.03;;
5704;SDS011;2877;48.238;11.160;2023-07-30T02:31:50;2.43;;;2.00;;
5704;SDS011;2877;48.238;11.160;2023-07-30T02:34:15;2.73;;;2.40;;
5704;SDS011;2877;48.238;11.160;2023-07-30T02:36:41;4.10;;;2.03;;
5704;SDS011;2877;48.238;11.160;2023-07-30T02:39:06;4.47;;;2.07;;
5704;SDS011;2877;48.238;11.160;2023-07-30T02:41:32;3.10;;;2.30;;
5704;SDS011;2877;48.238;11.160;2023-07-30T02:43:58;2.77;;;2.43;;
5704;SDS011;2877;48.238;11.160;2023-07-30T02:46:23;5.73;;;2.20;;
5704;SDS011;2877;48.238;11.160;2023-07-30T02:48:49;3.60;;;2.13;;
5704;SDS011;2877;48.238;11.160;2023-07-30T02:51:14;2.87;;;2.60;;
5704;SDS011;2877;48.238;11.160;2023-07-30T02:53:42;2.57;;;2.37;;
5704;SDS011;2877;48.238;11.160;2023-07-30T02:56:08;4.10;;;2.53;;
5704;SDS011;2877;48.238;11.160;2023-07-30T02:58:33;2.87;;;2.67;;
5704;SDS011;2877;48.238;11.160;2023-07-30T03:01:06;2.73;;;2.53;;
5704;SDS011;2877;48.238;11.160;2023-07-30T03:03:32;2.47;;;2.23;;
5704;SDS011;2877;48.238;11.160;2023-07-30T03:05:58;2.80;;;2.50;;
5704;SDS011;2877;48.238;11.160;2023-07-30T03:08:23;2.50;;;2.30;;
5704;SDS011;2877;48.238;11.160;2023-07-30T03:10:49;5.13;;;2.77;;
5704;SDS011;2877;48.238;11.160;2023-07-30T03:13:14;8.60;;;2.60;;
5704;SDS011;2877;48.238;11.160;2023-07-30T03:15:40;2.70;;;2.50;;
5704;SDS011;2877;48.238;11.160;2023-07-30T03:18:05;3.80;;;2.73;;
5704;SDS011;2877;48.238;11.160;2023-07-30T03:20:31;2.43;;;2.30;;
5704;SDS011;2877;48.238;11.160;2023-07-30T03:22:56;5.20;;;2.30;;
5704;SDS011;2877;48.238;11.160;2023-07-30T03:25:22;5.60;;;2.40;;
5704;SDS011;2877;48.238;11.160;2023-07-30T03:27:47;2.80;;;2.60;;
5704;SDS011;2877;48.238;11.160;2023-07-30T03:30:13;2.87;;;2.67;;
5704;SDS011;2877;48.238;11.160;2023-07-30T03:32:39;3.27;;;2.97;;
5704;SDS011;2877;48.238;11.160;2023-07-30T03:35:05;2.97;;;2.77;;
5704;SDS011;2877;48.238;11.160;2023-07-30T03:37:31;2.63;;;2.43;;
5704;SDS011;2877;48.238;11.160;2023-07-30T03:39:57;2.53;;;2.23;;
5704;SDS011;2877;48.238;11.160;2023-07-30T03:42:22;3.80;;;2.40;;
5704;SDS011;2877;48.238;11.160;2023-07-30T03:44:48;4.43;;;2.60;;
5704;SDS011;2877;48.238;11.160;2023-07-30T03:47:13;3.30;;;3.00;;
5704;SDS011;2877;48.238;11.160;2023-07-30T03:49:39;4.73;;;2.50;;
5704;SDS011;2877;48.238;11.160;2023-07-30T03:52:04;3.20;;;2.70;;
5704;SDS011;2877;48.238;11.160;2023-07-30T03:54:30;5.40;;;2.50;;
5704;SDS011;2877;48.238;11.160;2023-07-30T03:56:56;5.97;;;2.87;;
5704;SDS011;2877;48.238;11.160;2023-07-30T03:59:21;3.07;;;2.77;;
5704;SDS011;2877;48.238;11.160;2023-07-30T04:01:47;2.63;;;2.43;;
5704;SDS011;2877;48.238;11.160;2023-07-30T04:04:12;2.57;;;2.37;;
5704;SDS011;2877;48.238;11.160;2023-07-30T04:06:38;2.30;;;2.20;;
5704;SDS011;2877;48.238;11.160;2023-07-30T04:09:03;2.47;;;2.27;;
5704;SDS011;2877;48.238;11.160;2023-07-30T04:11:30;4.00;;;2.50;;
5704;SDS011;2877;48.238;11.160;2023-07-30T04:13:55;4.40;;;2.37;;
5704;SDS011;2877;48.238;11.160;2023-07-30T04:16:21;3.03;;;2.27;;
5704;SDS011;2877;48.238;11.160;2023-07-30T04:18:46;3.33;;;2.40;;
5704;SDS011;2877;48.238;11.160;2023-07-30T04:21:12;2.60;;;2.40;;
5704;SDS011;2877;48.238;11.160;2023-07-30T04:23:38;2.43;;;2.27;;
5704;SDS011;2877;48.238;11.160;2023-07-30T04:26:04;4.53;;;2.57;;
5704;SDS011;2877;48.238;11.160;2023-07-30T04:28:29;2.93;;;2.67;;
5704;SDS011;2877;48.238;11.160;2023-07-30T04:30:55;2.50;;;2.40;;
5704;SDS011;2877;48.238;11.160;2023-07-30T04:33:20;2.83;;;2.63;;
5704;SDS011;2877;48.238;11.160;2023-07-30T04:35:46;5.60;;;3.17;;
5704;SDS011;2877;48.238;11.160;2023-07-30T04:38:11;2.50;;;2.30;;
5704;SDS011;2877;48.238;11.160;2023-07-30T04:40:37;3.00;;;2.80;;
5704;SDS011;2877;48.238;11.160;2023-07-30T04:43:03;2.63;;;2.30;;
5704;SDS011;2877;48.238;11.160;2023-07-30T04:45:29;2.50;;;2.30;;
5704;SDS011;2877;48.238;11.160;2023-07-30T04:47:55;2.67;;;2.47;;
5704;SDS011;2877;48.238;11.160;2023-07-30T04:50:22;2.57;;;2.30;;
5704;SDS011;2877;48.238;11.160;2023-07-30T04:52:47;3.20;;;2.33;;
5704;SDS011;2877;48.238;11.160;2023-07-30T04:55:13;2.77;;;2.40;;
5704;SDS011;2877;48.238;11.160;2023-07-30T04:57:38;2.43;;;2.23;;
5704;SDS011;2877;48.238;11.160;2023-07-30T05:00:04;2.57;;;2.37;;
5704;SDS011;2877;48.238;11.160;2023-07-30T05:02:31;2.90;;;2.13;;
5704;SDS011;2877;48.238;11.160;2023-07-30T05:04:56;3.07;;;2.40;;
5704;SDS011;2877;48.238;11.160;2023-07-30T05:07:22;2.53;;;2.10;;
5704;SDS011;2877;48.238;11.160;2023-07-30T05:09:47;6.97;;;2.73;;
5704;SDS011;2877;48.238;11.160;2023-07-30T05:12:13;2.77;;;2.57;;
5704;SDS011;2877;48.238;11.160;2023-07-30T05:14:38;2.77;;;2.13;;
5704;SDS011;2877;48.238;11.160;2023-07-30T05:17:04;3.97;;;2.60;;
5704;SDS011;2877;48.238;11.160;2023-07-30T05:19:30;2.30;;;1.80;;
5704;SDS011;2877;48.238;11.160;2023-07-30T05:21:55;2.20;;;2.10;;
5704;SDS011;2877;48.238;11.160;2023-07-30T05:24:21;3.60;;;2.17;;
5704;SDS011;2877;48.238;11.160;2023-07-30T05:26:47;2.20;;;2.10;;
5704;SDS011;2877;48.238;11.160;2023-07-30T05:29:12;4.23;;;2.67;;
5704;SDS011;2877;48.238;11.160;2023-07-30T05:31:38;2.33;;;2.13;;
5704;SDS011;2877;48.238;11.160;2023-07-30T05:34:03;2.50;;;2.30;;
5704;SDS011;2877;48.238;11.160;2023-07-30T05:36:29;2.50;;;2.30;;
5704;SDS011;2877;48.238;11.160;2023-07-30T05:38:55;2.10;;;2.00;;
5704;SDS011;2877;48.238;11.160;2023-07-30T05:41:20;1.97;;;1.87;;
5704;SDS011;2877;48.238;11.160;2023-07-30T05:43:46;2.00;;;1.90;;
5704;SDS011;2877;48.238;11.160;2023-07-30T05:46:12;2.13;;;2.03;;
5704;SDS011;2877;48.238;11.160;2023-07-30T05:48:38;2.40;;;2.20;;
5704;SDS011;2877;48.238;11.160;2023-07-30T05:51:03;1.97;;;1.87;;
5704;SDS011;2877;48.238;11.160;2023-07-30T05:53:29;2.00;;;1.90;;
5704;SDS011;2877;48.238;11.160;2023-07-30T05:55:54;3.00;;;2.10;;
5704;SDS011;2877;48.238;11.160;2023-07-30T05:58:20;3.60;;;2.00;;
5704;SDS011;2877;48.238;11.160;2023-07-30T06:00:45;2.10;;;2.00;;
5704;SDS011;2877;48.238;11.160;2023-07-30T06:03:11;2.37;;;2.00;;
5704;SDS011;2877;48.238;11.160;2023-07-30T06:05:40;2.67;;;1.83;;
5704;SDS011;2877;48.238;11.160;2023-07-30T06:08:06;4.70;;;2.37;;
5704;SDS011;2877;48.238;11.160;2023-07-30T06:10:34;2.03;;;1.83;;
5704;SDS011;2877;48.238;11.160;2023-07-30T06:13:01;2.23;;;2.13;;
5704;SDS011;2877;48.238;11.160;2023-07-30T06:15:26;1.90;;;1.80;;
5704;SDS011;2877;48.238;11.160;2023-07-30T06:17:53;3.00;;;1.87;;
5704;SDS011;2877;48.238;11.160;2023-07-30T06:20:18;3.13;;;1.80;;
5704;SDS011;2877;48.238;11.160;2023-07-30T06:22:44;3.70;;;2.07;;
5704;SDS011;2877;48.238;11.160;2023-07-30T06:25:10;2.07;;;1.87;;
5704;SDS011;2877;48.238;11.160;2023-07-30T06:27:35;1.97;;;1.80;;
5704;SDS011;2877;48.238;11.160;2023-07-30T06:30:01;1.70;;;1.60;;
5704;SDS011;2877;48.238;11.160;2023-07-30T06:32:27;2.27;;;2.07;;
5704;SDS011;2877;48.238;11.160;2023-07-30T06:34:52;2.50;;;2.00;;
5704;SDS011;2877;48.238;11.160;2023-07-30T06:37:18;1.87;;;1.70;;
5704;SDS011;2877;48.238;11.160;2023-07-30T06:39:43;2.90;;;1.77;;
5704;SDS011;2877;48.238;11.160;2023-07-30T06:42:09;2.53;;;1.73;;
5704;SDS011;2877;48.238;11.160;2023-07-30T06:44:35;2.07;;;1.97;;
5704;SDS011;2877;48.238;11.160;2023-07-30T06:47:00;2.10;;;2.00;;
5704;SDS011;2877;48.238;11.160;2023-07-30T06:49:26;2.03;;;1.87;;
5704;SDS011;2877;48.238;11.160;2023-07-30T06:51:52;1.77;;;1.67;;
5704;SDS011;2877;48.238;11.160;2023-07-30T06:54:17;1.77;;;1.67;;
5704;SDS011;2877;48.238;11.160;2023-07-30T06:56:43;2.00;;;1.90;;
5704;SDS011;2877;48.238;11.160;2023-07-30T06:59:08;2.13;;;1.70;;
5704;SDS011;2877;48.238;11.160;2023-07-30T07:01:34;2.07;;;1.93;;
5704;SDS011;2877;48.238;11.160;2023-07-30T07:03:59;2.30;;;1.77;;
5704;SDS011;2877;48.238;11.160;2023-07-30T07:06:25;2.10;;;2.00;;
5704;SDS011;2877;48.238;11.160;2023-07-30T07:08:50;2.20;;;1.80;;
5704;SDS011;2877;48.238;11.160;2023-07-30T07:11:16;2.07;;;1.87;;
5704;SDS011;2877;48.238;11.160;2023-07-30T07:13:41;2.83;;;2.00;;
5704;SDS011;2877;48.238;11.160;2023-07-30T07:16:07;1.77;;;1.67;;
5704;SDS011;2877;48.238;11.160;2023-07-30T07:18:32;2.00;;;1.90;;
5704;SDS011;2877;48.238;11.160;2023-07-30T07:20:58;3.10;;;1.90;;
5704;SDS011;2877;48.238;11.160;2023-07-30T07:23:23;2.00;;;1.90;;
5704;SDS011;2877;48.238;11.160;2023-07-30T07:25:49;2.07;;;1.87;;
5704;SDS011;2877;48.238;11.160;2023-07-30T07:28:14;2.00;;;1.80;;
5704;SDS011;2877;48.238;11.160;2023-07-30T07:30:41;1.60;;;1.50;;
5704;SDS011;2877;48.238;11.160;2023-07-30T07:33:07;7.10;;;1.90;;
5704;SDS011;2877;48.238;11.160;2023-07-30T07:35:37;1.80;;;1.70;;
5704;SDS011;2877;48.238;11.160;2023-07-30T07:38:05;1.63;;;1.53;;
5704;SDS011;2877;48.238;11.160;2023-07-30T07:40:35;2.03;;;1.83;;
5704;SDS011;2877;48.238;11.160;2023-07-30T07:43:04;1.70;;;1.60;;
5704;SDS011;2877;48.238;11.160;2023-07-30T07:45:30;1.50;;;1.40;;
5704;SDS011;2877;48.238;11.160;2023-07-30T07:47:55;1.70;;;1.60;;
5704;SDS011;2877;48.238;11.160;2023-07-30T07:50:21;5.13;;;1.57;;
5704;SDS011;2877;48.238;11.160;2023-07-30T07:52:46;2.60;;;2.10;;
5704;SDS011;2877;48.238;11.160;2023-07-30T07:55:12;1.40;;;1.30;;
5704;SDS011;2877;48.238;11.160;2023-07-30T07:57:37;1.60;;;1.50;;
5704;SDS011;2877;48.238;11.160;2023-07-30T08:00:03;1.40;;;1.30;;
5704;SDS011;2877;48.238;11.160;2023-07-30T08:02:30;2.07;;;1.87;;
5704;SDS011;2877;48.238;11.160;2023-07-30T08:04:56;2.73;;;1.70;;
5704;SDS011;2877;48.238;11.160;2023-07-30T08:07:21;1.47;;;1.40;;
5704;SDS011;2877;48.238;11.160;2023-07-30T08:09:47;1.90;;;1.80;;
5704;SDS011;2877;48.238;11.160;2023-07-30T08:12:12;1.90;;;1.80;;
5704;SDS011;2877;48.238;11.160;2023-07-30T08:14:39;2.40;;;1.63;;
5704;SDS011;2877;48.238;11.160;2023-07-30T08:17:04;2.77;;;1.50;;
5704;SDS011;2877;48.238;11.160;2023-07-30T08:19:30;5.07;;;1.30;;
5704;SDS011;2877;48.238;11.160;2023-07-30T08:21:55;1.80;;;1.70;;
5704;SDS011;2877;48.238;11.160;2023-07-30T08:24:23;7.83;;;1.60;;
5704;SDS011;2877;48.238;11.160;2023-07-30T08:26:48;2.17;;;1.67;;
5704;SDS011;2877;48.238;11.160;2023-07-30T08:29:14;1.47;;;1.37;;
5704;SDS011;2877;48.238;11.160;2023-07-30T08:31:40;1.73;;;1.63;;
5704;SDS011;2877;48.238;11.160;2023-07-30T08:34:06;1.87;;;1.47;;
5704;SDS011;2877;48.238;11.160;2023-07-30T08:36:32;1.93;;;1.30;;
5704;SDS011;2877;48.238;11.160;2023-07-30T08:38:57;1.60;;;1.50;;
5704;SDS011;2877;48.238;11.160;2023-07-30T08:41:23;2.23;;;1.50;;
5704;SDS011;2877;48.238;11.160;2023-07-30T08:43:49;1.67;;;1.23;;
5704;SDS011;2877;48.238;11.160;2023-07-30T08:46:16;1.80;;;1.70;;
5704;SDS011;2877;48.238;11.160;2023-07-30T08:48:42;1.50;;;1.40;;
5704;SDS011;2877;48.238;11.160;2023-07-30T08:51:08;1.77;;;1.63;;
5704;SDS011;2877;48.238;11.160;2023-07-30T08:53:36;1.77;;;1.50;;
5704;SDS011;2877;48.238;11.160;2023-07-30T08:56:02;1.30;;;1.20;;
5704;SDS011;2877;48.238;11.160;2023-07-30T08:58:30;3.13;;;1.50;;
5704;SDS011;2877;48.238;11.160;2023-07-30T09:00:59;1.30;;;1.30;;
5704;SDS011;2877;48.238;11.160;2023-07-30T09:03:28;1.60;;;1.50;;
5704;SDS011;2877;48.238;11.160;2023-07-30T09:05:55;2.57;;;1.53;;
5704;SDS011;2877;48.238;11.160;2023-07-30T09:08:20;1.40;;;1.30;;
5704;SDS011;2877;48.238;11.160;2023-07-30T09:10:47;1.50;;;1.40;;
5704;SDS011;2877;48.238;11.160;2023-07-30T09:13:20;1.67;;;1.57;;
5704;SDS011;2877;48.238;11.160;2023-07-30T09:15:48;3.17;;;1.53;;
5704;SDS011;2877;48.238;11.160;2023-07-30T09:18:16;1.50;;;1.40;;
5704;SDS011;2877;48.238;11.160;2023-07-30T09:20:42;1.30;;;1.30;;
5704;SDS011;2877;48.238;11.160;2023-07-30T09:23:08;1.93;;;1.40;;
5704;SDS011;2877;48.238;11.160;2023-07-30T09:25:35;1.63;;;1.53;;
5704;SDS011;2877;48.238;11.160;2023-07-30T09:28:01;1.40;;;1.30;;
5704;SDS011;2877;48.238;11.160;2023-07-30T09:30:26;4.60;;;1.70;;
5704;SDS011;2877;48.238;11.160;2023-07-30T09:32:53;2.03;;;1.80;;
5704;SDS011;2877;48.238;11.160;2023-07-30T09:35:20;1.57;;;1.47;;
5704;SDS011;2877;48.238;11.160;2023-07-30T09:37:47;1.67;;;1.53;;
5704;SDS011;2877;48.238;11.160;2023-07-30T09:40:13;2.50;;;1.10;;
5704;SDS011;2877;48.238;11.160;2023-07-30T09:42:44;1.60;;;1.50;;
5704;SDS011;2877;48.238;11.160;2023-07-30T09:45:18;1.50;;;1.40;;
5704;SDS011;2877;48.238;11.160;2023-07-30T09:47:47;1.43;;;1.30;;
5704;SDS011;2877;48.238;11.160;2023-07-30T09:50:14;1.37;;;1.27;;
5704;SDS011;2877;48.238;11.160;2023-07-30T09:52:41;1.83;;;1.73;;
5704;SDS011;2877;48.238;11.160;2023-07-30T09:55:07;1.57;;;1.47;;
5704;SDS011;2877;48.238;11.160;2023-07-30T09:57:33;1.87;;;1.73;;
5704;SDS011;2877;48.238;11.160;2023-07-30T09:59:59;1.73;;;1.63;;
5704;SDS011;2877;48.238;11.160;2023-07-30T10:02:26;3.27;;;1.90;;
5704;SDS011;2877;48.238;11.160;2023-07-30T10:04:56;8.40;;;1.60;;
5704;SDS011;2877;48.238;11.160;2023-07-30T10:07:24;4.17;;;2.20;;
5704;SDS011;2877;48.238;11.160;2023-07-30T10:09:51;3.17;;;1.87;;
5704;SDS011;2877;48.238;11.160;2023-07-30T10:12:21;3.27;;;1.67;;
5704;SDS011;2877;48.238;11.160;2023-07-30T10:14:52;3.87;;;1.60;;
5704;SDS011;2877;48.238;11.160;2023-07-30T10:17:17;1.50;;;1.40;;
5704;SDS011;2877;48.238;11.160;2023-07-30T10:19:47;2.90;;;1.90;;
5704;SDS011;2877;48.238;11.160;2023-07-30T10:22:23;1.60;;;1.50;;
5704;SDS011;2877;48.238;11.160;2023-07-30T10:25:03;2.50;;;1.17;;
5704;SDS011;2877;48.238;11.160;2023-07-30T10:27:36;2.70;;;1.57;;
5704;SDS011;2877;48.238;11.160;2023-07-30T10:32:57;2.20;;;1.83;;
5704;SDS011;2877;48.238;11.160;2023-07-30T10:35:44;2.13;;;1.47;;
5704;SDS011;2877;48.238;11.160;2023-07-30T10:41:10;1.70;;;1.60;;
5704;SDS011;2877;48.238;11.160;2023-07-30T10:43:42;4.00;;;1.30;;
5704;SDS011;2877;48.238;11.160;2023-07-30T10:46:13;1.30;;;1.30;;
5704;SDS011;2877;48.238;11.160;2023-07-30T10:48:40;2.60;;;1.30;;
5704;SDS011;2877;48.238;11.160;2023-07-30T10:51:11;1.60;;;1.50;;
5704;SDS011;2877;48.238;11.160;2023-07-30T10:53:45;1.57;;;1.47;;
5704;SDS011;2877;48.238;11.160;2023-07-30T10:56:12;5.30;;;1.60;;
5704;SDS011;2877;48.238;11.160;2023-07-30T10:58:40;1.60;;;1.50;;
5704;SDS011;2877;48.238;11.160;2023-07-30T11:01:08;2.70;;;1.57;;
5704;SDS011;2877;48.238;11.160;2023-07-30T11:03:34;1.80;;;1.33;;
5704;SDS011;2877;48.238;11.160;2023-07-30T11:06:00;1.43;;;1.33;;
5704;SDS011;2877;48.238;11.160;2023-07-30T11:08:42;1.70;;;1.60;;
5704;SDS011;2877;48.238;11.160;2023-07-30T11:11:09;1.10;;;1.10;;
5704;SDS011;2877;48.238;11.160;2023-07-30T11:13:39;2.50;;;1.60;;
5704;SDS011;2877;48.238;11.160;2023-07-30T11:16:06;3.77;;;1.27;;
5704;SDS011;2877;48.238;11.160;2023-07-30T11:18:33;1.50;;;1.40;;
5704;SDS011;2877;48.238;11.160;2023-07-30T11:21:07;1.40;;;1.30;;
5704;SDS011;2877;48.238;11.160;2023-07-30T11:23:34;2.80;;;1.40;;
5704;SDS011;2877;48.238;11.160;2023-07-30T11:26:01;2.77;;;1.60;;
5704;SDS011;2877;48.238;11.160;2023-07-30T11:31:07;1.70;;;1.60;;
5704;SDS011;2877;48.238;11.160;2023-07-30T11:33:41;1.90;;;1.40;;
5704;SDS011;2877;48.238;11.160;2023-07-30T11:36:10;1.50;;;1.40;;
5704;SDS011;2877;48.238;11.160;2023-07-30T11:38:37;4.10;;;1.60;;
5704;SDS011;2877;48.238;11.160;2023-07-30T11:41:04;3.40;;;2.03;;
5704;SDS011;2877;48.238;11.160;2023-07-30T11:43:30;2.03;;;1.50;;
5704;SDS011;2877;48.238;11.160;2023-07-30T11:46:06;3.90;;;1.40;;
5704;SDS011;2877;48.238;11.160;2023-07-30T11:48:32;2.30;;;1.43;;
5704;SDS011;2877;48.238;11.160;2023-07-30T11:50:58;1.60;;;1.50;;
5704;SDS011;2877;48.238;11.160;2023-07-30T11:53:26;4.03;;;1.60;;
5704;SDS011;2877;48.238;11.160;2023-07-30T11:56:25;1.77;;;1.50;;
5704;SDS011;2877;48.238;11.160;2023-07-30T11:58:55;1.43;;;1.33;;
5704;SDS011;2877;48.238;11.160;2023-07-30T12:01:23;1.80;;;1.70;;
5704;SDS011;2877;48.238;11.160;2023-07-30T12:03:55;1.60;;;1.50;;
5704;SDS011;2877;48.238;11.160;2023-07-30T12:06:24;2.50;;;1.30;;
5704;SDS011;2877;48.238;11.160;2023-07-30T12:09:09;1.60;;;1.40;;
5704;SDS011;2877;48.238;11.160;2023-07-30T12:11:43;1.50;;;1.40;;
5704;SDS011;2877;48.238;11.160;2023-07-30T12:14:17;3.30;;;1.73;;
5704;SDS011;2877;48.238;11.160;2023-07-30T12:16:43;1.57;;;1.40;;
5704;SDS011;2877;48.238;11.160;2023-07-30T12:19:09;1.83;;;1.73;;
5704;SDS011;2877;48.238;11.160;2023-07-30T12:21:34;1.40;;;1.30;;
5704;SDS011;2877;48.238;11.160;2023-07-30T12:24:01;2.43;;;1.63;;
5704;SDS011;2877;48.238;11.160;2023-07-30T12:26:26;2.00;;;1.63;;
5704;SDS011;2877;48.238;11.160;2023-07-30T12:28:52;3.10;;;1.70;;
5704;SDS011;2877;48.238;11.160;2023-07-30T12:31:17;2.00;;;1.90;;
5704;SDS011;2877;48.238;11.160;2023-07-30T12:33:43;1.83;;;1.67;;
5704;SDS011;2877;48.238;11.160;2023-07-30T12:36:08;3.07;;;2.40;;
5704;SDS011;2877;48.238;11.160;2023-07-30T12:38:34;2.40;;;1.50;;
5704;SDS011;2877;48.238;11.160;2023-07-30T12:40:59;3.27;;;1.90;;
5704;SDS011;2877;48.238;11.160;2023-07-30T12:43:25;1.60;;;1.50;;
5704;SDS011;2877;48.238;11.160;2023-07-30T12:45:51;2.73;;;1.73;;
5704;SDS011;2877;48.238;11.160;2023-07-30T12:48:16;4.73;;;1.60;;
5704;SDS011;2877;48.238;11.160;2023-07-30T12:50:42;1.67;;;1.57;;
5704;SDS011;2877;48.238;11.160;2023-07-30T12:53:07;1.70;;;1.60;;
5704;SDS011;2877;48.238;11.160;2023-07-30T12:55:33;4.23;;;2.30;;
5704;SDS011;2877;48.238;11.160;2023-07-30T12:57:58;2.00;;;1.80;;
5704;SDS011;2877;48.238;11.160;2023-07-30T13:00:24;2.80;;;1.97;;
5704;SDS011;2877;48.238;11.160;2023-07-30T13:02:50;10.83;;;2.40;;
5704;SDS011;2877;48.238;11.160;2023-07-30T13:05:20;2.10;;;1.97;;
5704;SDS011;2877;48.238;11.160;2023-07-30T13:07:46;2.40;;;2.00;;
5704;SDS011;2877;48.238;11.160;2023-07-30T13:10:12;1.97;;;1.87;;
5704;SDS011;2877;48.238;11.160;2023-07-30T13:12:37;2.90;;;2.70;;
5704;SDS011;2877;48.238;11.160;2023-07-30T13:15:03;2.90;;;2.60;;
5704;SDS011;2877;48.238;11.160;2023-07-30T13:17:30;6.30;;;3.50;;
5704;SDS011;2877;48.238;11.160;2023-07-30T13:19:56;3.20;;;2.90;;
5704;SDS011;2877;48.238;11.160;2023-07-30T13:22:22;2.43;;;1.87;;
5704;SDS011;2877;48.238;11.160;2023-07-30T13:24:47;3.80;;;1.40;;
5704;SDS011;2877;48.238;11.160;2023-07-30T13:27:13;1.47;;;1.10;;
5704;SDS011;2877;48.238;11.160;2023-07-30T13:29:38;1.60;;;1.50;;
5704;SDS011;2877;48.238;11.160;2023-07-30T13:32:04;2.20;;;1.40;;
5704;SDS011;2877;48.238;11.160;2023-07-30T13:34:31;2.50;;;1.60;;
5704;SDS011;2877;48.238;11.160;2023-07-30T13:36:57;2.30;;;1.53;;
5704;SDS011;2877;48.238;11.160;2023-07-30T13:39:22;1.90;;;1.20;;
5704;SDS011;2877;48.238;11.160;2023-07-30T13:41:48;1.63;;;1.37;;
5704;SDS011;2877;48.238;11.160;2023-07-30T13:44:14;1.90;;;1.43;;
5704;SDS011;2877;48.238;11.160;2023-07-30T13:46:39;1.23;;;1.20;;
5704;SDS011;2877;48.238;11.160;2023-07-30T13:49:05;1.70;;;1.60;;
5704;SDS011;2877;48.238;11.160;2023-07-30T13:51:31;3.63;;;1.50;;
5704;SDS011;2877;48.238;11.160;2023-07-30T13:54:00;1.50;;;1.40;;
5704;SDS011;2877;48.238;11.160;2023-07-30T13:56:27;1.50;;;1.40;;
5704;SDS011;2877;48.238;11.160;2023-07-30T13:58:53;2.17;;;1.40;;
5704;SDS011;2877;48.238;11.160;2023-07-30T14:01:19;1.97;;;1.77;;
5704;SDS011;2877;48.238;11.160;2023-07-30T14:03:45;2.30;;;1.20;;
5704;SDS011;2877;48.238;11.160;2023-07-30T14:06:10;1.80;;;1.70;;
5704;SDS011;2877;48.238;11.160;2023-07-30T14:08:36;1.33;;;1.30;;
5704;SDS011;2877;48.238;11.160;2023-07-30T14:11:02;1.30;;;1.20;;
5704;SDS011;2877;48.238;11.160;2023-07-30T14:13:28;3.67;;;1.60;;
5704;SDS011;2877;48.238;11.160;2023-07-30T14:15:53;1.40;;;1.30;;
5704;SDS011;2877;48.238;11.160;2023-07-30T14:18:19;3.43;;;1.73;;
5704;SDS011;2877;48.238;11.160;2023-07-30T14:20:45;1.30;;;1.20;;
5704;SDS011;2877;48.238;11.160;2023-07-30T14:23:10;4.40;;;1.60;;
5704;SDS011;2877;48.238;11.160;2023-07-30T14:25:36;1.67;;;1.57;;
5704;SDS011;2877;48.238;11.160;2023-07-30T14:28:02;2.60;;;1.33;;
5704;SDS011;2877;48.238;11.160;2023-07-30T14:30:30;1.43;;;1.33;;
5704;SDS011;2877;48.238;11.160;2023-07-30T14:32:55;1.47;;;1.37;;
5704;SDS011;2877;48.238;11.160;2023-07-30T14:35:21;1.67;;;1.50;;
5704;SDS011;2877;48.238;11.160;2023-07-30T14:37:47;3.50;;;1.80;;
5704;SDS011;2877;48.238;11.160;2023-07-30T14:40:14;1.83;;;1.37;;
5704;SDS011;2877;48.238;11.160;2023-07-30T14:42:39;2.40;;;1.67;;
5704;SDS011;2877;48.238;11.160;2023-07-30T14:45:05;3.97;;;1.73;;
5704;SDS011;2877;48.238;11.160;2023-07-30T14:47:31;1.63;;;1.47;;
5704;SDS011;2877;48.238;11.160;2023-07-30T14:49:58;1.50;;;1.40;;
5704;SDS011;2877;48.238;11.160;2023-07-30T14:52:23;1.83;;;1.73;;
5704;SDS011;2877;48.238;11.160;2023-07-30T14:54:49;3.90;;;1.50;;
5704;SDS011;2877;48.238;11.160;2023-07-30T14:57:15;5.40;;;1.70;;
5704;SDS011;2877;48.238;11.160;2023-07-30T14:59:41;3.03;;;1.40;;
5704;SDS011;2877;48.238;11.160;2023-07-30T15:02:07;1.77;;;1.67;;
5704;SDS011;2877;48.238;11.160;2023-07-30T15:04:32;1.87;;;1.70;;